• Join FlightAware (Why Join?)
  • Login
  • US Flag 
11:58PM EDT


 

Airport Tracker/Info


-or-


 

Live Flight TrackerFlight Track Log ✈ CCA4486 ✈ 24-Nov-2013 ✈ ZUJZ / JZH - ZUUU / CTU

Flight Track Log - Related Links

Times and Time Zones

All times are in EST time to prevent confusion due to time zone crossing. See the CCA4486 flight status page for this flight to view local times or setup timezone preferences in your user account.

Time Position Orientation Groundspeed Altitude Reporting Facility
EST Latitude Longitude Course Direction KTS MPH feet Rate Location/Type
05:54AM 32.4024 103.7367 174° South  Level Estimated
05:55AM 32.2887 103.7501 174° South  Level Estimated
05:56AM 32.1751 103.7634 174° South  Level Estimated
05:57AM 32.0614 103.7767 174° South  Level Estimated
05:58AM 31.9478 103.7900 174° South  Level Estimated
05:59AM 31.8341 103.8032 174° South  Level Estimated
06:00AM 31.7204 103.8164 174° South  Level Estimated
06:01AM 31.6068 103.8295 174° South  Level Estimated
06:02AM 31.4931 103.8426 174° South  Level Estimated
06:03AM 31.3794 103.8557 174° South  Level Estimated
06:04AM 31.2658 103.8688 174° South  Level Estimated
06:05AM 31.1521 103.8818 174° South  Level Estimated
06:06AM 31.0384 103.8948 174° South  Level Estimated
06:07AM 30.9247 103.9078 174° South  Level Estimated
06:08AM 30.8111 103.9207 174° South  Level Estimated
06:09AM 30.6974 103.9336 174° South  Level Estimated
06:10AM 30.5837 103.9465 174° South  Level Estimated
06:11AM 30.5785 103.9471 174° South  Level Estimated
06:12AM 30.5785 103.9471 240° Southwest  Level Estimated
06:13AM 30.5785 103.9471 240° Southwest  Level Estimated
06:14AM 30.5785 103.9471 240° Southwest  Level Estimated
06:15AM 30.5785 103.9471 240° Southwest  Level Estimated
06:16AM 30.5785 103.9471 240° Southwest  Level Estimated
06:17AM 30.5785 103.9471 240° Southwest  Level Estimated
06:18AM 30.5785 103.9471 240° Southwest  Level Estimated
06:19AM 30.5785 103.9471 240° Southwest  Level Estimated
06:20AM 30.5785 103.9471 240° Southwest  Level Estimated
06:21AM 30.5785 103.9471 240° Southwest  Level Estimated
06:22AM 30.5785 103.9471 240° Southwest  Level Estimated
06:23AM 30.5785 103.9471 240° Southwest  Level Estimated
06:24AM 30.5785 103.9471 240° Southwest  Level Estimated
06:25AM 30.5785 103.9471 240° Southwest  Level Estimated
06:26AM 30.5785 103.9471 240° Southwest  Level Estimated